Time;durP1;ratioP1;P1;durP2;ratioP2;P2;SDS_P1;SDS_P2;PMS_P1;PMS_P2;Temp;Humidity;BMP_temperature;BMP_pressure;BME280_temperature;BME280_humidity;BME280_pressure;Samples;Min_cycle;Max_cycle;Signal;HPM_P1;HPM_P2
2023/11/13 00:00:52;;;;;;;4.22;2.88;;;22.70;56.60;;;;;;10404605;28;20200;-47
2023/11/13 00:05:57;;;;;;;3.10;2.70;;;22.70;57.30;;;;;;10393950;28;20252;-49
2023/11/13 00:11:01;;;;;;;3.88;2.47;;;22.70;56.60;;;;;;10403124;28;20592;-46
2023/11/13 00:16:05;;;;;;;2.95;2.38;;;22.70;56.60;;;;;;10402404;28;20274;-46
2023/11/13 00:21:11;;;;;;;3.95;2.60;;;22.60;56.50;;;;;;10395809;28;20200;-45
2023/11/13 00:26:14;;;;;;;3.70;2.50;;;22.60;56.50;;;;;;10390320;28;20574;-50
2023/11/13 00:31:18;;;;;;;2.78;2.22;;;22.70;56.50;;;;;;10391204;28;20700;-45
2023/11/13 00:36:23;;;;;;;2.83;2.35;;;22.70;57.20;;;;;;10383962;28;20752;-45
2023/11/13 00:41:31;;;;;;;2.85;2.53;;;22.70;56.50;;;;;;10401987;28;20231;-48
2023/11/13 00:46:35;;;;;;;2.95;2.22;;;22.70;56.50;;;;;;10393310;28;20228;-48
2023/11/13 00:51:40;;;;;;;2.60;2.40;;;22.60;56.40;;;;;;10400960;28;20212;-45
2023/11/13 00:56:43;;;;;;;2.33;2.13;;;22.70;56.50;;;;;;10398140;28;20256;-44
2023/11/13 01:01:47;;;;;;;3.75;2.50;;;22.70;56.50;;;;;;10388641;28;20227;-46
2023/11/13 01:06:56;;;;;;;2.95;2.55;;;22.70;57.10;;;;;;10400787;28;20289;-43
2023/11/13 01:11:59;;;;;;;3.78;2.17;;;22.60;56.40;;;;;;10401118;28;20204;-46
2023/11/13 01:17:03;;;;;;;2.92;2.45;;;22.60;56.40;;;;;;10395706;28;20283;-48
2023/11/13 01:22:08;;;;;;;3.13;2.40;;;22.60;56.30;;;;;;10398151;28;20235;-44
2023/11/13 01:27:12;;;;;;;2.75;2.25;;;22.60;56.30;;;;;;10391443;28;20716;-47
2023/11/13 01:32:16;;;;;;;3.70;2.72;;;22.60;56.30;;;;;;10393815;28;20200;-44
2023/11/13 01:37:22;;;;;;;3.15;2.30;;;22.60;56.30;;;;;;10394030;28;20224;-46
2023/11/13 01:42:26;;;;;;;3.17;1.90;;;22.60;56.30;;;;;;10389808;28;20742;-48
2023/11/13 01:47:30;;;;;;;2.25;2.03;;;22.60;56.30;;;;;;10391031;28;20708;-46
2023/11/13 01:52:36;;;;;;;3.28;1.85;;;22.60;56.30;;;;;;10397910;28;20220;-48
2023/11/13 01:57:40;;;;;;;2.50;1.98;;;22.60;56.30;;;;;;10394582;28;20995;-46
2023/11/13 02:02:44;;;;;;;2.40;2.00;;;22.60;56.30;;;;;;10398766;28;20285;-46
2023/11/13 02:07:49;;;;;;;3.08;2.03;;;22.60;56.30;;;;;;10393110;28;20229;-49
2023/11/13 02:12:54;;;;;;;3.40;1.88;;;22.60;56.30;;;;;;10406763;28;20200;-51
2023/11/13 02:18:01;;;;;;;3.13;2.22;;;22.60;56.30;;;;;;10400712;28;20730;-43
2023/11/13 02:23:07;;;;;;;2.13;1.83;;;22.60;56.30;;;;;;10400914;28;20249;-45
2023/11/13 02:28:11;;;;;;;2.33;1.83;;;22.60;56.30;;;;;;10392336;28;20220;-48
2023/11/13 02:33:15;;;;;;;2.35;2.10;;;22.60;56.30;;;;;;10391957;28;20200;-44
2023/11/13 02:38:19;;;;;;;2.45;1.92;;;22.60;56.20;;;;;;10404690;28;20607;-42
2023/11/13 02:43:24;;;;;;;4.55;2.60;;;22.60;56.20;;;;;;10403827;28;20220;-47
2023/11/13 02:48:28;;;;;;;2.33;1.77;;;22.60;56.80;;;;;;10400658;28;20889;-43
2023/11/13 02:53:32;;;;;;;2.72;2.00;;;22.60;56.30;;;;;;10381953;28;20718;-43
2023/11/13 02:58:36;;;;;;;2.45;2.05;;;22.60;56.20;;;;;;10405144;28;20692;-46
2023/11/13 03:03:40;;;;;;;2.58;1.95;;;22.60;56.80;;;;;;10407795;28;20209;-45
2023/11/13 03:08:45;;;;;;;2.35;1.88;;;22.60;56.20;;;;;;10411603;28;20263;-45
2023/11/13 03:13:50;;;;;;;1.98;1.80;;;22.60;56.20;;;;;;10407189;28;20646;-45
2023/11/13 03:18:54;;;;;;;1.90;1.70;;;22.60;56.20;;;;;;10391974;28;20217;-45
2023/11/13 03:23:57;;;;;;;2.03;1.73;;;22.60;56.20;;;;;;10406339;28;20669;-45
2023/11/13 03:29:03;;;;;;;2.17;1.70;;;22.60;56.80;;;;;;10392617;28;20656;-44
2023/11/13 03:34:06;;;;;;;2.30;1.98;;;22.60;56.10;;;;;;10409580;28;20734;-45
2023/11/13 03:39:10;;;;;;;2.03;1.73;;;22.60;56.10;;;;;;10405414;28;20225;-45
2023/11/13 03:44:16;;;;;;;2.03;1.50;;;22.60;56.20;;;;;;10402188;28;20231;-42
2023/11/13 03:49:20;;;;;;;10.02;2.22;;;22.70;56.10;;;;;;10402806;28;20707;-49
2023/11/13 03:54:23;;;;;;;7.43;2.40;;;22.80;56.20;;;;;;10384396;28;20230;-47
2023/11/13 03:59:28;;;;;;;10.18;2.20;;;22.80;56.10;;;;;;10402447;28;20358;-48
2023/11/13 04:04:32;;;;;;;5.53;2.00;;;22.90;56.20;;;;;;10379576;28;20262;-51
2023/11/13 04:09:36;;;;;;;6.72;2.05;;;22.80;56.00;;;;;;10382726;28;20278;-48
2023/11/13 04:14:40;;;;;;;6.65;1.92;;;22.80;56.00;;;;;;10404229;28;20224;-48
2023/11/13 04:19:44;;;;;;;3.53;1.80;;;22.80;56.20;;;;;;10406143;28;20262;-44
2023/11/13 04:24:48;;;;;;;7.88;2.42;;;22.80;56.20;;;;;;10409930;28;20624;-45
2023/11/13 04:29:53;;;;;;;4.20;2.22;;;22.80;56.20;;;;;;10410131;28;20277;-47
2023/11/13 04:34:56;;;;;;;7.22;2.38;;;22.90;56.20;;;;;;10394153;28;20196;-47
2023/11/13 04:40:00;;;;;;;9.75;2.55;;;22.90;56.20;;;;;;10399167;28;20224;-49
2023/11/13 04:45:06;;;;;;;5.45;2.00;;;22.90;56.20;;;;;;10394802;28;20231;-51
2023/11/13 04:50:12;;;;;;;2.60;1.88;;;22.80;56.10;;;;;;10395868;28;20593;-44
2023/11/13 04:55:16;;;;;;;3.40;1.75;;;22.80;56.10;;;;;;10404743;28;20220;-44
2023/11/13 05:00:22;;;;;;;4.38;2.30;;;22.80;56.10;;;;;;10401790;28;20208;-43
2023/11/13 05:05:26;;;;;;;2.67;1.80;;;22.70;56.00;;;;;;10392856;28;20282;-46
2023/11/13 05:10:30;;;;;;;4.85;2.08;;;22.70;56.00;;;;;;10408764;28;20220;-45
2023/11/13 05:15:35;;;;;;;4.72;1.92;;;22.70;56.00;;;;;;10399170;28;20298;-45
2023/11/13 05:20:43;;;;;;;2.42;1.70;;;22.70;56.00;;;;;;10389970;28;20218;-46
2023/11/13 05:25:46;;;;;;;2.78;1.70;;;22.60;56.00;;;;;;10408268;28;20224;-49
2023/11/13 05:30:51;;;;;;;1.92;1.63;;;22.70;56.00;;;;;;10404992;28;20259;-42
2023/11/13 05:35:55;;;;;;;3.17;1.73;;;22.60;56.00;;;;;;10409640;28;20236;-43
2023/11/13 05:40:58;;;;;;;2.80;1.77;;;22.60;56.00;;;;;;10385942;28;20201;-44
2023/11/13 05:46:03;;;;;;;4.28;1.73;;;22.60;56.00;;;;;;10395019;28;20233;-47
2023/11/13 05:51:07;;;;;;;2.40;1.63;;;22.60;56.00;;;;;;10391789;28;20761;-45
2023/11/13 05:56:11;;;;;;;2.15;1.83;;;22.60;56.00;;;;;;10404204;28;20236;-47
2023/11/13 06:01:19;;;;;;;2.88;1.73;;;22.60;56.00;;;;;;10407898;28;20242;-44
2023/11/13 06:06:22;;;;;;;2.70;1.73;;;22.60;56.00;;;;;;10406499;28;20350;-47
2023/11/13 06:11:26;;;;;;;1.67;1.50;;;22.60;56.70;;;;;;10395714;28;20248;-45
2023/11/13 06:16:33;;;;;;;2.35;1.70;;;22.60;56.00;;;;;;10401827;28;20224;-45
2023/11/13 06:21:37;;;;;;;2.55;1.63;;;22.60;56.70;;;;;;10403104;28;20250;-51
2023/11/13 06:26:43;;;;;;;2.97;1.63;;;22.60;56.00;;;;;;10407349;28;20219;-44
2023/11/13 06:31:48;;;;;;;3.75;1.70;;;22.60;56.10;;;;;;10407250;28;20228;-44
2023/11/13 06:36:52;;;;;;;2.67;1.58;;;22.60;56.10;;;;;;10408868;28;20604;-44
2023/11/13 06:41:59;;;;;;;3.40;1.63;;;22.60;56.10;;;;;;10409080;28;20204;-43
2023/11/13 06:47:04;;;;;;;2.60;1.67;;;22.60;56.00;;;;;;10414755;28;20250;-44
2023/11/13 06:52:09;;;;;;;2.13;1.33;;;22.60;56.00;;;;;;10392155;28;20205;-48
2023/11/13 06:57:13;;;;;;;2.50;1.42;;;22.60;56.10;;;;;;10398842;28;20320;-46
2023/11/13 07:02:19;;;;;;;2.53;1.35;;;22.60;56.10;;;;;;10386247;28;20266;-46
2023/11/13 07:07:24;;;;;;;3.08;1.40;;;22.50;56.00;;;;;;10403434;28;20224;-45
2023/11/13 07:12:29;;;;;;;3.42;1.40;;;22.60;56.10;;;;;;10404417;28;20197;-44
2023/11/13 07:17:38;;;;;;;2.05;1.60;;;22.50;56.00;;;;;;10409418;28;20221;-45
2023/11/13 07:22:42;;;;;;;2.78;1.45;;;22.50;56.10;;;;;;10389078;28;20208;-46
2023/11/13 07:27:46;;;;;;;4.05;1.70;;;22.60;56.10;;;;;;10412972;28;20709;-46
2023/11/13 07:32:50;;;;;;;3.83;1.58;;;22.60;56.10;;;;;;10407494;28;20231;-49
2023/11/13 07:37:54;;;;;;;3.03;1.45;;;22.60;56.10;;;;;;10394121;28;20699;-47
2023/11/13 07:42:58;;;;;;;3.90;1.73;;;22.60;56.10;;;;;;10402550;28;20208;-46
2023/11/13 07:48:04;;;;;;;17.35;2.30;;;22.60;56.10;;;;;;10393338;28;20334;-45
2023/11/13 07:53:08;;;;;;;6.60;1.80;;;22.60;56.10;;;;;;10404867;28;20262;-46
2023/11/13 07:58:11;;;;;;;5.07;1.95;;;22.50;56.10;;;;;;10410286;28;20243;-45
2023/11/13 08:03:18;;;;;;;11.10;2.20;;;22.60;56.20;;;;;;10396618;28;20263;-44
2023/11/13 08:08:22;;;;;;;5.70;1.65;;;22.60;56.10;;;;;;10395666;28;20274;-44
2023/11/13 08:13:26;;;;;;;3.15;1.63;;;22.50;56.10;;;;;;10404765;28;20327;-45
2023/11/13 08:18:31;;;;;;;4.30;1.70;;;22.60;56.10;;;;;;10412280;28;20247;-45
2023/11/13 08:23:34;;;;;;;3.08;1.60;;;22.60;56.20;;;;;;10408979;28;20258;-45
2023/11/13 08:28:38;;;;;;;4.22;1.65;;;22.50;56.10;;;;;;10395780;28;20605;-44
2023/11/13 08:33:45;;;;;;;3.45;1.48;;;22.50;56.10;;;;;;10399398;28;20222;-46
2023/11/13 08:38:50;;;;;;;2.15;1.35;;;22.60;56.20;;;;;;10381623;28;20645;-50
2023/11/13 08:43:56;;;;;;;4.80;1.40;;;22.50;56.10;;;;;;10401662;28;20231;-44
2023/11/13 08:49:03;;;;;;;5.07;1.60;;;22.60;56.20;;;;;;10401493;28;20286;-51
2023/11/13 08:54:07;;;;;;;2.03;1.45;;;22.50;56.10;;;;;;10397908;28;20254;-45
2023/11/13 08:59:12;;;;;;;2.80;1.30;;;22.60;56.20;;;;;;10401619;28;20220;-47
2023/11/13 09:04:17;;;;;;;1.65;1.27;;;22.50;56.20;;;;;;10388619;28;20331;-50
2023/11/13 09:09:26;;;;;;;2.70;1.25;;;22.60;56.20;;;;;;10403448;28;20242;-49
2023/11/13 09:14:29;;;;;;;2.70;1.33;;;22.60;56.20;;;;;;10393995;28;20223;-45
2023/11/13 09:19:34;;;;;;;2.85;1.38;;;22.50;56.20;;;;;;10388780;28;20216;-47
2023/11/13 09:24:39;;;;;;;3.40;1.40;;;22.60;56.30;;;;;;10395641;28;20201;-48
2023/11/13 09:29:44;;;;;;;1.80;1.20;;;22.50;56.40;;;;;;10395219;28;20229;-49
2023/11/13 09:34:54;;;;;;;2.20;1.30;;;22.50;56.20;;;;;;10396254;28;20266;-47
2023/11/13 09:39:57;;;;;;;1.73;1.17;;;22.50;56.20;;;;;;10400089;28;20200;-50
2023/11/13 09:45:05;;;;;;;2.15;1.40;;;22.50;56.20;;;;;;10385134;28;20289;-49
2023/11/13 09:50:15;;;;;;;5.50;1.67;;;22.60;56.30;;;;;;10395173;28;20228;-46
2023/11/13 09:55:21;;;;;;;1.90;1.30;;;22.50;56.20;;;;;;10386968;28;20220;-47
2023/11/13 10:00:30;;;;;;;1.60;1.20;;;22.60;56.30;;;;;;10386624;28;20208;-46
2023/11/13 10:05:35;;;;;;;2.72;1.33;;;22.60;56.30;;;;;;10393505;28;20642;-45
2023/11/13 10:10:42;;;;;;;4.18;1.38;;;22.50;56.20;;;;;;10396722;28;20220;-44
2023/11/13 10:15:47;;;;;;;2.45;1.35;;;22.60;56.30;;;;;;10391501;28;20255;-47
2023/11/13 10:20:52;;;;;;;1.95;1.30;;;22.50;56.30;;;;;;10374804;28;20201;-49
2023/11/13 10:25:56;;;;;;;2.13;1.40;;;22.50;56.20;;;;;;10391813;28;20293;-44
2023/11/13 10:31:01;;;;;;;9.32;1.98;;;22.50;56.20;;;;;;10395272;28;20221;-55
2023/11/13 10:36:17;;;;;;;7.18;1.55;;;22.60;56.30;;;;;;10405582;28;20228;-50
2023/11/13 10:41:25;;;;;;;6.45;1.83;;;22.50;56.30;;;;;;10390786;28;20254;-44
2023/11/13 10:46:29;;;;;;;4.15;1.25;;;22.60;56.30;;;;;;10397037;28;20233;-46
2023/11/13 10:51:35;;;;;;;3.15;1.50;;;22.60;56.30;;;;;;10393246;28;20270;-47
2023/11/13 10:56:39;;;;;;;6.47;1.52;;;22.60;56.30;;;;;;10396853;28;20274;-45
2023/11/13 11:01:47;;;;;;;2.55;1.35;;;22.50;56.30;;;;;;10380785;28;20251;-49
2023/11/13 11:06:54;;;;;;;6.28;1.42;;;22.60;56.30;;;;;;10408050;28;20247;-49
2023/11/13 11:11:57;;;;;;;6.22;1.40;;;22.60;56.40;;;;;;10399137;28;20251;-46
2023/11/13 11:17:06;;;;;;;2.95;1.20;;;22.60;56.40;;;;;;10407520;28;20680;-52
2023/11/13 11:22:17;;;;;;;2.83;1.02;;;22.60;56.40;;;;;;10405735;28;20196;-47
2023/11/13 11:27:40;;;;;;;3.60;1.33;;;22.60;56.50;;;;;;10413001;28;20251;-51
2023/11/13 11:32:52;;;;;;;2.42;1.23;;;22.60;56.50;;;;;;10394403;28;20223;-50
2023/11/13 11:38:26;;;;;;;4.22;1.40;;;22.60;56.50;;;;;;10383290;28;20228;-46
2023/11/13 11:43:33;;;;;;;2.83;1.10;;;22.60;56.60;;;;;;10397066;28;20255;-46
2023/11/13 11:48:38;;;;;;;3.90;1.85;;;22.60;56.50;;;;;;10368950;28;20232;-51
2023/11/13 11:53:57;;;;;;;4.60;1.35;;;22.60;56.50;;;;;;10387548;28;20228;-45
2023/11/13 11:59:01;;;;;;;3.53;1.27;;;22.60;56.60;;;;;;10401931;28;20278;-46
2023/11/13 12:04:05;;;;;;;13.13;1.92;;;22.60;56.50;;;;;;10393508;28;20201;-48
2023/11/13 12:09:11;;;;;;;6.25;1.30;;;22.60;56.50;;;;;;10389344;28;20224;-47
2023/11/13 12:14:15;;;;;;;3.58;1.30;;;22.60;56.50;;;;;;10395189;28;20197;-45
2023/11/13 12:19:19;;;;;;;3.95;1.30;;;22.60;57.20;;;;;;10399393;28;20842;-45
2023/11/13 12:24:24;;;;;;;2.28;1.10;;;22.60;56.60;;;;;;10398350;28;20274;-48
2023/11/13 12:29:27;;;;;;;2.00;1.08;;;22.60;56.60;;;;;;10402672;28;20224;-44
2023/11/13 12:34:31;;;;;;;6.15;1.20;;;22.60;56.60;;;;;;10387090;28;20679;-44
2023/11/13 12:39:37;;;;;;;6.30;1.23;;;22.60;56.60;;;;;;10376645;28;20225;-45
2023/11/13 12:44:42;;;;;;;3.90;1.30;;;22.60;56.60;;;;;;10391186;28;20242;-42
2023/11/13 12:49:47;;;;;;;6.28;1.10;;;22.60;56.70;;;;;;10403370;28;20313;-44
2023/11/13 12:54:55;;;;;;;3.47;1.40;;;22.70;56.70;;;;;;10404363;28;20239;-49
2023/11/13 12:59:59;;;;;;;2.50;1.08;;;22.70;56.60;;;;;;10406396;28;20242;-42
2023/11/13 13:05:05;;;;;;;2.85;1.20;;;22.70;56.60;;;;;;10398076;28;20223;-43
2023/11/13 13:10:12;;;;;;;3.60;1.33;;;22.70;56.70;;;;;;10396277;28;20213;-46
2023/11/13 13:15:17;;;;;;;2.92;0.98;;;22.70;56.80;;;;;;10397440;28;20220;-46
2023/11/13 13:20:23;;;;;;;2.70;1.20;;;22.70;56.80;;;;;;10400695;28;20210;-46
2023/11/13 13:25:30;;;;;;;1.65;0.93;;;22.70;56.80;;;;;;10400787;28;20601;-43
2023/11/13 13:30:36;;;;;;;2.90;0.90;;;22.70;56.80;;;;;;10396090;28;21875;-42
2023/11/13 13:35:41;;;;;;;2.25;0.90;;;22.70;56.80;;;;;;10401365;28;20297;-46
2023/11/13 13:40:46;;;;;;;3.58;1.00;;;22.70;56.90;;;;;;10399346;28;20665;-56
2023/11/13 13:45:50;;;;;;;1.45;0.95;;;22.60;56.80;;;;;;10396481;28;20262;-45
2023/11/13 13:50:56;;;;;;;2.17;0.82;;;22.60;56.80;;;;;;10400374;28;20239;-44
2023/11/13 13:56:09;;;;;;;1.60;0.90;;;22.60;56.80;;;;;;10395097;28;20696;-52
2023/11/13 14:01:13;;;;;;;2.70;0.93;;;22.70;56.90;;;;;;10403333;28;20223;-48
2023/11/13 14:06:17;;;;;;;2.35;0.95;;;22.70;57.50;;;;;;10405703;28;20319;-47
2023/11/13 14:11:23;;;;;;;1.50;1.00;;;22.60;56.80;;;;;;10407935;28;20224;-42
2023/11/13 14:16:39;;;;;;;1.08;0.98;;;22.70;57.00;;;;;;10403773;28;20219;-45
2023/11/13 14:21:45;;;;;;;2.85;1.30;;;22.60;56.80;;;;;;10398596;28;20201;-48
2023/11/13 14:26:50;;;;;;;2.15;1.20;;;22.60;56.90;;;;;;10398217;28;20697;-46
2023/11/13 14:31:55;;;;;;;2.50;1.30;;;22.60;56.90;;;;;;10398807;28;20256;-42
2023/11/13 14:36:59;;;;;;;2.45;1.13;;;22.60;56.90;;;;;;10403101;28;20227;-46
2023/11/13 14:42:07;;;;;;;2.17;1.10;;;22.60;56.90;;;;;;10398526;28;20200;-44
2023/11/13 14:47:12;;;;;;;1.65;0.73;;;22.60;57.00;;;;;;10407180;28;20274;-46
2023/11/13 14:52:16;;;;;;;4.20;1.25;;;22.70;57.00;;;;;;10391062;28;20604;-47
2023/11/13 14:57:21;;;;;;;2.03;1.00;;;22.60;57.60;;;;;;10406710;28;20261;-43
2023/11/13 15:02:24;;;;;;;2.40;1.00;;;22.60;57.00;;;;;;10403038;28;20608;-42
2023/11/13 15:07:31;;;;;;;2.50;1.02;;;22.60;57.00;;;;;;10398786;28;20271;-46
2023/11/13 15:12:39;;;;;;;2.35;0.95;;;22.60;57.10;;;;;;10403644;28;20244;-46
2023/11/13 15:17:44;;;;;;;1.55;0.77;;;22.60;57.10;;;;;;10397349;28;20260;-43
2023/11/13 15:22:51;;;;;;;1.67;1.10;;;22.60;57.10;;;;;;10411826;28;20262;-41
2023/11/13 15:28:16;;;;;;;1.58;0.95;;;22.60;57.80;;;;;;10400681;28;20640;-43
2023/11/13 15:33:20;;;;;;;1.77;1.00;;;22.60;57.10;;;;;;10396607;28;20605;-48
2023/11/13 15:38:25;;;;;;;1.83;1.20;;;22.60;57.10;;;;;;10402864;28;20656;-47
2023/11/13 15:43:30;;;;;;;2.00;1.00;;;22.60;57.10;;;;;;10401466;28;20242;-49
2023/11/13 15:48:36;;;;;;;1.77;1.00;;;22.60;57.20;;;;;;10408182;28;20281;-47
2023/11/13 15:53:40;;;;;;;1.55;0.80;;;22.60;57.20;;;;;;10408281;28;20861;-44
2023/11/13 15:58:45;;;;;;;1.33;0.98;;;22.60;57.20;;;;;;10404455;28;20221;-43
2023/11/13 16:03:49;;;;;;;0.80;0.70;;;22.60;57.20;;;;;;10401391;28;20200;-47
2023/11/13 16:08:53;;;;;;;1.15;0.93;;;22.70;57.30;;;;;;10404714;28;20765;-52
2023/11/13 16:13:58;;;;;;;1.25;0.90;;;22.60;57.20;;;;;;10402577;28;20220;-47
2023/11/13 16:19:02;;;;;;;1.45;0.95;;;22.60;57.30;;;;;;10408489;28;20232;-48
2023/11/13 16:24:06;;;;;;;1.58;0.90;;;22.60;57.20;;;;;;10402543;28;20231;-45
2023/11/13 16:29:12;;;;;;;1.17;1.00;;;22.60;57.30;;;;;;10408126;28;20220;-44
2023/11/13 16:34:15;;;;;;;1.23;0.80;;;22.60;57.90;;;;;;10375874;28;20766;-45
2023/11/13 16:39:19;;;;;;;1.20;0.95;;;22.60;57.30;;;;;;10406401;28;20240;-46
2023/11/13 16:44:25;;;;;;;6.28;1.02;;;22.60;57.30;;;;;;10399717;28;20721;-45
2023/11/13 16:49:29;;;;;;;5.97;1.08;;;22.60;57.30;;;;;;10399471;28;20282;-44
2023/11/13 16:54:32;;;;;;;8.70;1.30;;;22.60;57.30;;;;;;10402428;28;20293;-45
2023/11/13 16:59:38;;;;;;;3.80;1.00;;;22.70;57.40;;;;;;10404713;28;20220;-46
2023/11/13 17:04:41;;;;;;;4.35;1.02;;;22.70;57.40;;;;;;10404721;28;20761;-49
2023/11/13 17:09:45;;;;;;;5.20;1.15;;;22.60;57.30;;;;;;10402230;28;20248;-47
2023/11/13 17:14:50;;;;;;;3.95;1.00;;;22.60;57.30;;;;;;10403900;28;20642;-43
2023/11/13 17:19:54;;;;;;;2.88;1.20;;;22.70;57.40;;;;;;10402912;28;20254;-45
2023/11/13 17:24:58;;;;;;;3.15;1.00;;;22.60;57.30;;;;;;10409197;28;20204;-42
2023/11/13 17:30:03;;;;;;;3.05;0.80;;;22.60;57.40;;;;;;10395330;28;20306;-45
2023/11/13 17:35:09;;;;;;;2.80;0.80;;;22.70;57.50;;;;;;10399687;28;20244;-46
2023/11/13 17:40:13;;;;;;;1.90;1.15;;;22.60;57.40;;;;;;10396774;28;20205;-43
2023/11/13 17:45:20;;;;;;;3.33;0.98;;;22.60;57.40;;;;;;10395182;28;20220;-45
2023/11/13 17:50:23;;;;;;;1.52;0.80;;;22.60;57.40;;;;;;10405087;28;20204;-46
2023/11/13 17:55:27;;;;;;;2.28;0.80;;;22.60;57.40;;;;;;10402533;28;20278;-43
2023/11/13 18:00:32;;;;;;;2.10;1.00;;;22.60;57.40;;;;;;10407545;28;20208;-44
2023/11/13 18:05:36;;;;;;;1.65;0.82;;;22.70;57.50;;;;;;10387069;28;20262;-49
2023/11/13 18:10:41;;;;;;;2.25;1.10;;;22.60;57.40;;;;;;10409846;28;20230;-47
2023/11/13 18:15:48;;;;;;;2.53;1.05;;;22.60;57.40;;;;;;10382880;28;20225;-45
2023/11/13 18:20:53;;;;;;;11.57;1.42;;;22.60;57.40;;;;;;10396300;28;20653;-48
2023/11/13 18:25:58;;;;;;;23.08;2.30;;;22.70;57.50;;;;;;10403256;28;20598;-43
2023/11/13 18:31:05;;;;;;;17.38;2.00;;;22.70;57.50;;;;;;10407900;28;20242;-42
2023/11/13 18:36:12;;;;;;;13.50;1.67;;;22.70;57.50;;;;;;10410189;28;20277;-42
2023/11/13 18:41:16;;;;;;;9.77;2.13;;;22.70;57.50;;;;;;10409075;28;20255;-44
2023/11/13 18:46:21;;;;;;;10.57;2.28;;;22.70;57.50;;;;;;10412913;28;20605;-44
2023/11/13 18:51:25;;;;;;;5.63;2.08;;;22.60;57.40;;;;;;10414592;28;20342;-42
2023/11/13 18:56:28;;;;;;;9.25;2.03;;;22.60;57.40;;;;;;10399966;28;20243;-46
2023/11/13 19:01:34;;;;;;;6.43;1.60;;;22.60;57.40;;;;;;10409668;28;20201;-45
2023/11/13 19:06:40;;;;;;;7.35;1.77;;;22.70;57.50;;;;;;10382560;28;20216;-43
2023/11/13 19:11:44;;;;;;;5.00;1.90;;;22.60;57.40;;;;;;10403648;28;20209;-49
2023/11/13 19:16:50;;;;;;;21.60;5.43;;;22.60;57.30;;;;;;10396928;28;20260;-44
2023/11/13 19:21:53;;;;;;;14.68;4.45;;;22.60;56.90;;;;;;10412271;28;20729;-41
2023/11/13 19:26:57;;;;;;;17.77;4.63;;;22.50;55.90;;;;;;10405876;28;20744;-45
2023/11/13 19:32:02;;;;;;;12.43;4.18;;;22.30;55.20;;;;;;10407659;28;20258;-44
2023/11/13 19:37:06;;;;;;;11.13;3.80;;;22.00;54.70;;;;;;10403213;28;20350;-41
2023/11/13 19:42:09;;;;;;;15.20;4.50;;;21.80;54.40;;;;;;10395307;28;20208;-41
2023/11/13 19:47:14;;;;;;;13.73;4.20;;;21.70;54.10;;;;;;10398638;28;20228;-44
2023/11/13 19:52:18;;;;;;;17.50;4.43;;;21.60;54.00;;;;;;10395011;28;20201;-43
2023/11/13 19:57:23;;;;;;;14.10;4.30;;;21.50;53.90;;;;;;10399971;28;20229;-42
2023/11/13 20:02:28;;;;;;;12.40;4.13;;;21.50;53.80;;;;;;10369071;28;20232;-39
2023/11/13 20:07:32;;;;;;;11.10;3.50;;;21.50;54.40;;;;;;10403909;28;20255;-42
2023/11/13 20:12:36;;;;;;;10.50;3.17;;;21.70;54.70;;;;;;10391216;28;20201;-43
2023/11/13 20:17:41;;;;;;;10.05;3.40;;;21.90;54.90;;;;;;10405449;28;20225;-41
2023/11/13 20:22:45;;;;;;;8.50;3.22;;;22.00;55.00;;;;;;10394892;28;20208;-40
2023/11/13 20:27:49;;;;;;;12.52;3.80;;;22.10;55.10;;;;;;10398972;28;20225;-39
2023/11/13 20:32:54;;;;;;;11.18;3.40;;;22.20;55.20;;;;;;10392724;28;20252;-42
2023/11/13 20:37:58;;;;;;;7.85;2.78;;;22.20;55.30;;;;;;10397524;28;20255;-41
2023/11/13 20:43:02;;;;;;;8.77;3.03;;;22.20;55.20;;;;;;10400272;28;20725;-42
2023/11/13 20:48:08;;;;;;;9.07;3.50;;;22.30;55.30;;;;;;10402711;28;20227;-42
2023/11/13 20:53:12;;;;;;;9.63;3.45;;;22.30;55.30;;;;;;10404575;28;20266;-41
2023/11/13 20:58:15;;;;;;;10.07;3.25;;;22.30;55.40;;;;;;10404651;28;20247;-45
2023/11/13 21:03:20;;;;;;;9.73;3.75;;;22.30;55.40;;;;;;10406818;28;20270;-44
2023/11/13 21:08:24;;;;;;;13.93;3.35;;;22.30;55.40;;;;;;10403388;28;20663;-46
2023/11/13 21:13:28;;;;;;;9.68;3.28;;;22.30;55.40;;;;;;10404551;28;20240;-44
2023/11/13 21:18:33;;;;;;;10.52;3.22;;;22.40;55.50;;;;;;10401544;28;20274;-43
2023/11/13 21:23:37;;;;;;;8.50;2.90;;;22.40;55.50;;;;;;10398607;28;20255;-45
2023/11/13 21:28:41;;;;;;;9.68;3.55;;;22.40;55.60;;;;;;10370670;28;20247;-48
2023/11/13 21:33:46;;;;;;;9.70;3.00;;;22.40;55.60;;;;;;10399974;28;20244;-45
2023/11/13 21:38:51;;;;;;;8.20;2.83;;;22.40;55.50;;;;;;10399229;28;20278;-45
2023/11/13 21:43:55;;;;;;;7.72;3.13;;;22.40;55.60;;;;;;10397039;28;20197;-47
2023/11/13 21:49:00;;;;;;;10.30;3.22;;;22.40;55.60;;;;;;10395013;28;20232;-43
2023/11/13 21:54:06;;;;;;;6.55;2.70;;;22.40;55.60;;;;;;10407728;28;20278;-45
2023/11/13 21:59:09;;;;;;;9.95;3.00;;;22.40;55.60;;;;;;10395512;28;20277;-43
2023/11/13 22:04:14;;;;;;;6.95;2.95;;;22.40;55.60;;;;;;10407984;28;20215;-43
2023/11/13 22:09:20;;;;;;;10.88;3.10;;;22.40;55.60;;;;;;10406016;28;20247;-43
2023/11/13 22:14:24;;;;;;;8.10;2.85;;;22.40;55.60;;;;;;10390231;28;20228;-44
2023/11/13 22:19:29;;;;;;;6.22;2.40;;;22.40;55.60;;;;;;10405142;28;20250;-45
2023/11/13 22:24:33;;;;;;;6.13;2.60;;;22.40;55.60;;;;;;10399295;28;20218;-44
2023/11/13 22:29:37;;;;;;;7.68;2.83;;;22.40;55.60;;;;;;10392074;28;20228;-43
2023/11/13 22:34:42;;;;;;;6.78;3.10;;;22.40;56.30;;;;;;10395594;28;20662;-44
2023/11/13 22:39:48;;;;;;;6.50;2.40;;;22.40;55.60;;;;;;10391231;28;20220;-43
2023/11/13 22:44:52;;;;;;;10.02;3.15;;;22.40;55.60;;;;;;10392932;28;20656;-46
2023/11/13 22:49:57;;;;;;;7.35;2.60;;;22.40;55.60;;;;;;10391984;28;20208;-44
2023/11/13 22:55:00;;;;;;;6.72;2.60;;;22.40;55.60;;;;;;10392084;28;20757;-45
2023/11/13 23:00:08;;;;;;;6.47;2.60;;;22.40;55.70;;;;;;10397053;28;20212;-45
2023/11/13 23:05:13;;;;;;;5.63;2.95;;;22.40;55.70;;;;;;10389969;28;20188;-44
2023/11/13 23:10:16;;;;;;;7.07;2.47;;;22.40;55.60;;;;;;10368129;28;20664;-42
2023/11/13 23:15:20;;;;;;;6.65;2.97;;;22.40;55.70;;;;;;10361743;28;20674;-45
2023/11/13 23:20:25;;;;;;;10.43;3.17;;;22.40;55.70;;;;;;10375851;28;20209;-46
2023/11/13 23:25:29;;;;;;;6.57;2.67;;;22.40;55.60;;;;;;10397385;28;20274;-45
2023/11/13 23:30:32;;;;;;;6.47;2.25;;;22.40;55.70;;;;;;10383320;28;20228;-44
2023/11/13 23:35:38;;;;;;;7.68;2.42;;;22.40;55.70;;;;;;10398275;28;20255;-47
2023/11/13 23:40:41;;;;;;;7.60;2.58;;;22.40;55.70;;;;;;10403916;28;20762;-46
2023/11/13 23:45:45;;;;;;;7.32;2.70;;;22.50;56.40;;;;;;10373657;28;20228;-44
2023/11/13 23:50:50;;;;;;;6.88;2.95;;;22.50;55.80;;;;;;10397908;28;20255;-45
2023/11/13 23:55:55;;;;;;;6.95;2.88;;;22.40;55.70;;;;;;10405429;28;20220;-44
